createdAt,value
2018-10-16T00:01:55.824Z,11.91
2018-10-16T00:07:14.481Z,11.88
2018-10-16T00:12:33.091Z,11.81
2018-10-16T00:17:51.700Z,11.72
2018-10-16T00:23:11.250Z,11.72
2018-10-16T00:28:29.804Z,11.63
2018-10-16T00:33:48.430Z,11.60
2018-10-16T00:39:10.891Z,11.61
2018-10-16T00:44:30.075Z,11.47
2018-10-16T00:49:48.697Z,11.44
2018-10-16T00:55:08.328Z,11.41
2018-10-16T01:00:26.892Z,11.31
2018-10-16T01:05:46.455Z,11.25
2018-10-16T01:11:08.414Z,11.24
2018-10-16T01:16:27.019Z,11.20
2018-10-16T01:21:45.637Z,11.21
2018-10-16T01:27:04.227Z,11.22
2018-10-16T01:32:23.074Z,11.20
2018-10-16T01:37:42.134Z,11.25
2018-10-16T01:43:00.667Z,11.34
2018-10-16T01:48:19.196Z,11.36
2018-10-16T01:53:38.399Z,11.44
2018-10-16T01:58:57.023Z,11.47
2018-10-16T02:04:15.690Z,11.43
2018-10-16T02:09:34.220Z,11.56
2018-10-16T02:14:52.800Z,11.55
2018-10-16T02:20:11.417Z,11.69
2018-10-16T02:25:30.025Z,11.69
2018-10-16T02:30:48.828Z,11.85
2018-10-16T02:36:07.427Z,11.82
2018-10-16T02:41:25.970Z,11.82
2018-10-16T02:46:44.469Z,11.90
2018-10-16T02:52:03.038Z,12.02
2018-10-16T02:57:21.743Z,12.04
2018-10-16T03:02:40.397Z,12.07
2018-10-16T03:07:58.970Z,12.05
2018-10-16T03:13:17.634Z,12.08
2018-10-16T03:18:36.222Z,11.98
2018-10-16T03:23:54.810Z,12.15
2018-10-16T03:29:13.420Z,12.06
2018-10-16T03:34:32.030Z,12.02
2018-10-16T03:39:50.768Z,12.08
2018-10-16T03:45:11.340Z,12.12
2018-10-16T03:50:29.906Z,12.16
2018-10-16T03:55:48.419Z,12.12
2018-10-16T04:01:07.680Z,12.21
2018-10-16T04:06:26.274Z,12.24
2018-10-16T04:11:44.870Z,12.22
2018-10-16T04:17:03.482Z,12.27
2018-10-16T04:22:22.089Z,12.34
2018-10-16T04:27:40.753Z,12.30
2018-10-16T04:32:59.325Z,12.35
2018-10-16T04:38:17.924Z,12.38
2018-10-16T04:43:37.155Z,12.30
2018-10-16T04:48:56.365Z,12.46
2018-10-16T04:54:14.867Z,12.44
2018-10-16T04:59:34.026Z,12.43
2018-10-16T05:04:52.897Z,12.56
2018-10-16T05:10:11.464Z,12.41
2018-10-16T05:15:31.286Z,12.50
2018-10-16T05:20:49.981Z,12.51
2018-10-16T05:26:08.661Z,12.42
2018-10-16T05:31:27.685Z,12.49
2018-10-16T05:36:46.062Z,12.45
2018-10-16T05:42:04.992Z,12.46
2018-10-16T05:47:23.716Z,12.49
2018-10-16T05:52:42.270Z,12.51
2018-10-16T05:58:01.442Z,12.47
2018-10-16T06:03:20.100Z,12.56
2018-10-16T06:08:38.811Z,12.61
2018-10-16T06:13:57.349Z,12.58
2018-10-16T06:19:15.986Z,12.58
2018-10-16T06:24:35.101Z,12.54
2018-10-16T06:29:54.410Z,12.63
2018-10-16T06:35:14.503Z,12.67
2018-10-16T06:40:33.188Z,12.78
2018-10-16T06:45:51.780Z,12.80
2018-10-16T06:51:10.360Z,12.91
2018-10-16T06:56:28.898Z,12.95
2018-10-16T07:01:47.451Z,12.97
2018-10-16T07:07:07.160Z,12.99
2018-10-16T07:12:25.601Z,13.21
2018-10-16T07:17:44.327Z,13.32
2018-10-16T07:23:02.946Z,13.54
2018-10-16T07:28:21.577Z,13.78
2018-10-16T07:33:40.994Z,13.99
2018-10-16T07:38:59.769Z,14.22
2018-10-16T07:44:18.163Z,14.43
2018-10-16T07:49:37.124Z,14.51
2018-10-16T07:54:55.695Z,14.56
2018-10-16T08:00:14.300Z,14.59
2018-10-16T08:05:33.024Z,14.80
2018-10-16T08:10:52.839Z,15.11
2018-10-16T08:16:11.423Z,15.19
2018-10-16T08:21:30.072Z,15.39
2018-10-16T08:26:48.853Z,15.57
2018-10-16T08:32:07.465Z,15.72
2018-10-16T08:38:34.994Z,15.88
2018-10-16T08:44:37.476Z,16.09
2018-10-16T08:50:07.378Z,16.35
2018-10-16T08:55:25.974Z,16.52
2018-10-16T09:00:44.650Z,16.69
2018-10-16T09:06:03.239Z,16.84
2018-10-16T09:11:22.781Z,17.06
2018-10-16T09:16:42.992Z,17.46
2018-10-16T09:22:01.626Z,17.75
2018-10-16T09:27:20.260Z,17.92
2018-10-16T09:32:39.200Z,17.88
2018-10-16T09:37:57.892Z,18.04
2018-10-16T09:43:16.404Z,18.22
2018-10-16T09:48:35.883Z,18.46
2018-10-16T09:53:54.640Z,18.80
2018-10-16T09:59:13.718Z,19.01
2018-10-16T10:04:32.927Z,19.22
2018-10-16T10:09:51.612Z,19.47
2018-10-16T10:15:10.260Z,19.70
2018-10-16T10:20:28.852Z,20.03
2018-10-16T10:25:47.412Z,20.33
2018-10-16T10:31:06.367Z,20.41
2018-10-16T10:36:24.995Z,20.69
2018-10-16T10:41:43.715Z,20.89
2018-10-16T10:47:02.443Z,20.98
2018-10-16T10:52:21.019Z,20.99
2018-10-16T10:57:39.989Z,21.18
2018-10-16T11:02:58.659Z,21.34
2018-10-16T11:08:18.368Z,21.40
2018-10-16T11:13:37.369Z,21.57
2018-10-16T11:18:57.442Z,21.55
2018-10-16T11:24:15.988Z,21.58
2018-10-16T11:29:34.547Z,21.86
2018-10-16T11:34:53.152Z,21.86
2018-10-16T11:40:12.706Z,21.81
2018-10-16T11:45:31.258Z,21.74
2018-10-16T11:50:51.060Z,21.78
2018-10-16T11:56:11.855Z,21.90
2018-10-16T12:01:31.090Z,22.00
2018-10-16T12:06:49.655Z,22.15
2018-10-16T12:12:08.318Z,22.14
2018-10-16T12:19:38.026Z,22.27
2018-10-16T12:24:56.549Z,22.42
2018-10-16T12:30:15.071Z,22.48
2018-10-16T12:35:33.642Z,22.43
2018-10-16T12:40:52.171Z,22.44
2018-10-16T12:46:11.090Z,22.45
2018-10-16T12:51:29.764Z,22.46
2018-10-16T12:56:48.771Z,22.50
2018-10-16T13:02:07.523Z,22.59
2018-10-16T13:07:32.858Z,22.49
2018-10-16T13:12:51.397Z,22.70
2018-10-16T13:18:09.991Z,22.83
2018-10-16T13:23:28.630Z,22.66
2018-10-16T13:28:47.238Z,22.54
2018-10-16T13:34:06.439Z,22.49
2018-10-16T13:39:24.931Z,22.62
2018-10-16T13:44:43.432Z,22.51
2018-10-16T13:50:02.234Z,22.45
2018-10-16T13:55:20.845Z,22.36
2018-10-16T14:00:39.411Z,22.34
2018-10-16T14:05:57.966Z,22.25
2018-10-16T14:11:16.746Z,22.28
2018-10-16T14:16:36.424Z,22.44
2018-10-16T14:21:55.108Z,22.34
2018-10-16T14:27:13.669Z,22.23
2018-10-16T14:32:32.213Z,21.98
2018-10-16T14:37:51.513Z,21.93
2018-10-16T14:43:10.030Z,21.94
2018-10-16T14:48:28.645Z,21.86
2018-10-16T14:53:47.213Z,21.71
2018-10-16T14:59:05.895Z,21.63
2018-10-16T15:04:24.459Z,21.48
2018-10-16T15:09:43.047Z,21.29
2018-10-16T15:15:02.710Z,21.14
2018-10-16T15:20:22.150Z,20.99
2018-10-16T15:25:40.786Z,20.85
2018-10-16T15:31:00.562Z,20.79
2018-10-16T15:36:19.351Z,20.80
2018-10-16T15:41:38.403Z,20.77
2018-10-16T15:46:58.630Z,20.83
2018-10-16T15:52:17.291Z,20.76
2018-10-16T15:57:35.964Z,20.65
2018-10-16T16:02:55.074Z,20.41
2018-10-16T16:08:15.211Z,20.27
2018-10-16T16:13:33.782Z,20.11
2018-10-16T16:18:52.385Z,19.87
2018-10-16T16:24:11.178Z,19.64
2018-10-16T16:29:30.473Z,19.51
2018-10-16T16:34:49.044Z,19.31
2018-10-16T16:40:09.600Z,19.13
2018-10-16T16:45:28.104Z,18.98
2018-10-16T16:50:47.142Z,18.80
2018-10-16T16:56:06.313Z,18.61
2018-10-16T17:01:24.811Z,18.46
2018-10-16T17:06:43.599Z,18.36
2018-10-16T17:12:02.099Z,18.20
2018-10-16T17:17:21.460Z,18.16
2018-10-16T17:22:40.201Z,18.05
2018-10-16T17:27:58.910Z,17.96
2018-10-16T17:33:17.656Z,17.84
2018-10-16T17:38:36.408Z,17.76
2018-10-16T17:43:55.687Z,17.57
2018-10-16T17:49:14.357Z,17.44
2018-10-16T17:54:32.938Z,17.40
2018-10-16T17:59:51.684Z,17.30
2018-10-16T18:05:10.450Z,17.23
2018-10-16T18:10:29.731Z,17.07
2018-10-16T18:15:49.011Z,17.01
2018-10-16T18:21:07.858Z,16.95
2018-10-16T18:26:27.171Z,16.81
2018-10-16T18:31:45.797Z,16.71
2018-10-16T18:37:04.628Z,16.56
2018-10-16T18:42:23.351Z,16.38
2018-10-16T18:47:42.254Z,16.25
2018-10-16T18:53:00.943Z,16.16
2018-10-16T18:58:19.473Z,16.05
2018-10-16T19:03:38.024Z,15.95
2018-10-16T19:08:56.594Z,15.89
2018-10-16T19:14:15.092Z,15.85
2018-10-16T19:19:33.603Z,15.69
2018-10-16T19:24:52.370Z,15.69
2018-10-16T19:30:12.177Z,15.50
2018-10-16T19:35:31.619Z,15.52
2018-10-16T19:40:50.149Z,15.46
2018-10-16T19:46:08.693Z,15.43
2018-10-16T19:51:27.236Z,15.49
2018-10-16T19:56:45.795Z,15.45
2018-10-16T20:02:04.919Z,15.37
2018-10-16T20:07:23.508Z,15.37
2018-10-16T20:12:42.619Z,15.37
2018-10-16T20:18:02.763Z,15.36
2018-10-16T20:23:23.211Z,15.29
2018-10-16T20:28:41.779Z,15.27
2018-10-16T20:34:00.477Z,15.26
2018-10-16T20:39:19.061Z,15.22
2018-10-16T20:44:37.625Z,15.23
2018-10-16T20:49:56.294Z,15.03
2018-10-16T20:55:14.852Z,14.97
2018-10-16T21:00:33.608Z,14.90
2018-10-16T21:05:52.305Z,14.94
2018-10-16T21:11:10.768Z,14.93
2018-10-16T21:16:29.306Z,14.86
2018-10-16T21:21:47.855Z,14.84
2018-10-16T21:27:13.603Z,14.80
2018-10-16T21:32:32.090Z,14.77
2018-10-16T21:37:50.648Z,14.80
2018-10-16T21:43:09.244Z,14.77
2018-10-16T21:48:27.998Z,14.76
2018-10-16T21:53:46.524Z,14.60
2018-10-16T21:59:07.132Z,14.51
2018-10-16T22:04:25.620Z,14.40
2018-10-16T22:09:44.223Z,14.30
2018-10-16T22:15:02.809Z,14.26
2018-10-16T22:20:21.322Z,14.19
2018-10-16T22:25:39.924Z,14.09
2018-10-16T22:30:58.443Z,14.10
2018-10-16T22:36:16.962Z,14.11
2018-10-16T22:41:35.470Z,14.01
2018-10-16T22:46:54.002Z,13.88
2018-10-16T22:52:12.526Z,13.78
2018-10-16T22:57:31.054Z,13.65
2018-10-16T23:02:50.155Z,13.58
2018-10-16T23:08:08.745Z,13.48
2018-10-16T23:13:27.312Z,13.47
2018-10-16T23:18:45.871Z,13.47
2018-10-16T23:24:04.423Z,13.38
2018-10-16T23:29:22.981Z,13.36
2018-10-16T23:34:41.531Z,13.25
2018-10-16T23:40:00.114Z,13.19
2018-10-16T23:45:18.615Z,13.09
2018-10-16T23:50:37.240Z,12.99
2018-10-16T23:55:55.791Z,13.03
